Grafton, Virginia
Current Conditions -  °F | °C
As of 1:54 AM on Friday 31 Oct 2014 (Local Time) from KPHF Reporting Station
Clear Clear  
Wind Chill: 50°   Ceiling: Unl
Heat Index: 50°   Visibility: 9mi
Dew Point: 44°   Wind: 6mph
Humidity: 80%   Direction: 360°N
Pressure: 29.99"   Gusts: NA
Location:  37.1781°N, 76.4669°W
Report Text: KPHF 310554Z 36005KT 9SM CLR 10/07 A2999 RMK AO2 SLP155 60000 T01000067 10106 20078 58010
Loading
Personal Weather Stations






























Interactive Weather Map New forecast layout! Learn more

10-Day Weather Forecast

Advertisements
Track Severe Weather on mobile